KDRO/DRO METAR and TAF weather

Enter ICAO airport designator
Station Type Date Time Source
KDRO METAR 2020/11/28 19:53 UTC NOAA

KDRO 281953Z AUTO 15005KT 10SM CLR 03/M05 A3019 RMK AO2 SLP252 T00331050


Station Type Date Time Source
KDRO Decoded METAR 2020/11/28 19:53 UTC NOAA

DURANGO-LA PLATA COUNTY AIRPORT , CO, United States (KDRO) 37-09N 107-46W 2035M
Nov 28, 2020 - 02:53 PM EST / 2020.11.28 1953 UTC
Wind: from the SSE (150 degrees) at 6 MPH (5 KT):0
Visibility: 10 mile(s):0
Sky conditions: clear
Temperature: 37.9 F (3.3 C)
Dew Point: 23.0 F (-5.0 C)
Relative Humidity: 54%
Pressure (altimeter): 30.19 in. Hg (1022 hPa)
ob: KDRO 281953Z AUTO 15005KT 10SM CLR 03/M05 A3019 RMK AO2 SLP252 T00331050
cycle: 20

Station Type Date Time Source
KDRO TAF 2020/11/28 18:22 UTC NOAA

TAF KDRO 281720Z 2818/2918 00000KT P6SM FEW020
TEMPO 2818/2819 OVC008
FM282100 20005KT P6SM SKC
FM290600 05004KT P6SM SKC

Example: see airport list